Terminal Aerodrome Forecast
Issued by NWS St Louis, MO

Home | Current Version | Previous Version | Text Only | Print | Product List | Glossary On
Versions: 1 2 3 4 5 6 7 8 9 10 11 12 13 14 15 16 17 18 19 20 21 22 23 24 25 26 27 28 29
000
FTUS43 KLSX 240200 AAA
TAFSTL
TAF AMD
KSTL 240243Z 2403/2506 22008KT 3SM BR OVC008
     FM240700 26014KT 4SM -RA BR OVC008
     FM241100 28020G30KT P6SM OVC015
     FM242200 27015G25KT P6SM SCT015 OVC040=

USA.gov is the U.S. government's official web portal to all federal, state and local government web resources and services.